createdAt,value
2023-01-01T00:02:37.159Z,12.13
2023-01-01T00:10:29.362Z,12.23
2023-01-01T00:18:01.159Z,12.18
2023-01-01T00:25:33.097Z,13.63
2023-01-01T00:33:04.837Z,13.07
2023-01-01T00:40:36.823Z,13.45
2023-01-01T00:48:08.590Z,13.98
2023-01-01T00:55:41.090Z,13.77
2023-01-01T01:03:28.027Z,14.38
2023-01-01T01:11:10.164Z,14.77
2023-01-01T01:18:42.149Z,13.93
2023-01-01T01:26:20.076Z,14.27
2023-01-01T01:33:51.952Z,14.77
2023-01-01T01:41:29.181Z,14.32
2023-01-01T01:49:13.478Z,14.77
2023-01-01T01:56:52.656Z,15.18
2023-01-01T02:04:24.394Z,15.02
2023-01-01T02:11:56.206Z,14.05
2023-01-01T02:20:16.080Z,14.77
2023-01-01T02:28:25.750Z,14.00
2023-01-01T02:35:59.964Z,14.90
2023-01-01T02:43:31.716Z,14.57
2023-01-01T02:51:46.942Z,14.32
2023-01-01T03:00:19.661Z,14.27
2023-01-01T03:08:14.560Z,13.77
2023-01-01T03:15:52.792Z,14.82
2023-01-01T03:23:31.795Z,14.65
2023-01-01T03:31:03.895Z,14.02
2023-01-01T03:38:40.930Z,13.40
2023-01-01T03:46:13.487Z,13.77
2023-01-01T03:53:45.333Z,13.57
2023-01-01T04:01:27.233Z,13.35
2023-01-01T04:08:59.141Z,13.10
2023-01-01T04:16:30.946Z,13.45
2023-01-01T04:24:02.766Z,13.15
2023-01-01T04:31:35.291Z,13.05
2023-01-01T04:39:07.099Z,14.25
2023-01-01T04:46:38.855Z,13.27
2023-01-01T04:54:10.677Z,13.45
2023-01-01T05:01:42.573Z,12.68
2023-01-01T05:09:14.460Z,13.75
2023-01-01T05:16:46.222Z,12.57
2023-01-01T05:24:18.092Z,11.70
2023-01-01T05:31:49.927Z,12.10
2023-01-01T05:39:21.755Z,12.27
2023-01-01T05:46:53.484Z,11.40
2023-01-01T05:54:25.282Z,11.27
2023-01-01T06:01:57.064Z,12.15
2023-01-01T06:09:28.834Z,11.25
2023-01-01T06:17:00.604Z,11.38
2023-01-01T06:24:37.112Z,10.98
2023-01-01T06:32:11.387Z,11.65
2023-01-01T06:39:43.081Z,10.98
2023-01-01T06:47:14.828Z,10.50
2023-01-01T06:54:46.620Z,10.23
2023-01-01T07:02:18.541Z,10.45
2023-01-01T07:09:50.458Z,10.10
2023-01-01T07:17:22.181Z,10.32
2023-01-01T07:24:53.982Z,10.43
2023-01-01T07:32:25.734Z,9.90
2023-01-01T07:39:57.466Z,9.38
2023-01-01T07:47:29.201Z,9.75
2023-01-01T07:55:00.991Z,9.32
2023-01-01T08:02:32.963Z,9.45
2023-01-01T08:10:05.837Z,10.05
2023-01-01T08:17:44.302Z,9.07
2023-01-01T08:25:18.111Z,9.57
2023-01-01T08:32:50.024Z,9.13
2023-01-01T08:40:21.880Z,8.70
2023-01-01T08:47:53.595Z,9.25
2023-01-01T08:55:25.475Z,8.23
2023-01-01T09:02:57.350Z,9.45
2023-01-01T09:10:29.168Z,8.73
2023-01-01T09:18:00.922Z,8.48
2023-01-01T09:25:33.338Z,9.43
2023-01-01T09:33:05.101Z,8.63
2023-01-01T09:41:02.334Z,9.10
2023-01-01T09:48:36.332Z,10.10
2023-01-01T09:56:13.811Z,10.40
2023-01-01T10:04:34.998Z,10.13
2023-01-01T10:12:42.641Z,8.73
2023-01-01T10:20:39.275Z,9.00
2023-01-01T10:28:26.990Z,8.43
2023-01-01T10:35:58.789Z,9.07
2023-01-01T10:43:30.822Z,9.05
2023-01-01T10:51:06.662Z,9.30
2023-01-01T10:58:44.234Z,9.77
2023-01-01T11:06:22.159Z,8.98
2023-01-01T11:13:55.175Z,9.02
2023-01-01T11:21:26.914Z,8.98
2023-01-01T11:29:16.618Z,9.35
2023-01-01T11:36:48.386Z,9.38
2023-01-01T11:44:35.651Z,10.80
2023-01-01T11:52:39.953Z,10.18
2023-01-01T12:00:14.931Z,10.82
2023-01-01T12:07:54.079Z,11.70
2023-01-01T12:15:40.349Z,13.52
2023-01-01T12:23:12.215Z,14.15
2023-01-01T12:31:13.801Z,14.35
2023-01-01T12:38:51.454Z,13.10
2023-01-01T12:46:38.857Z,13.00
2023-01-01T12:54:51.313Z,11.63
2023-01-01T13:02:29.018Z,12.35
2023-01-01T13:10:26.573Z,12.20
2023-01-01T13:17:59.432Z,11.50
2023-01-01T13:25:31.246Z,10.57
2023-01-01T13:33:34.913Z,10.68
2023-01-01T13:41:30.375Z,10.45
2023-01-01T13:49:17.106Z,11.00
2023-01-01T13:56:58.058Z,9.75
2023-01-01T14:04:41.410Z,10.10
2023-01-01T14:12:20.624Z,8.82
2023-01-01T14:19:52.448Z,9.10
2023-01-01T14:27:24.298Z,8.43
2023-01-01T14:35:01.682Z,9.27
2023-01-01T14:42:35.087Z,8.18
2023-01-01T14:50:10.034Z,8.68
2023-01-01T14:57:41.779Z,8.35
2023-01-01T15:05:22.581Z,7.60
2023-01-01T15:12:55.381Z,8.10
2023-01-01T15:20:27.137Z,7.82
2023-01-01T15:27:58.911Z,7.07
2023-01-01T15:35:32.702Z,7.25
2023-01-01T15:43:23.017Z,6.82
2023-01-01T15:51:04.767Z,6.43
2023-01-01T15:59:07.103Z,6.65
2023-01-01T16:06:45.718Z,7.07
2023-01-01T16:14:17.795Z,6.53
2023-01-01T16:21:51.108Z,6.60
2023-01-01T16:29:22.831Z,6.00
2023-01-01T16:36:54.602Z,5.90
2023-01-01T16:44:29.282Z,5.93
2023-01-01T16:52:01.043Z,6.32
2023-01-01T16:59:32.787Z,5.70
2023-01-01T17:07:04.562Z,5.93
2023-01-01T17:14:36.430Z,6.00
2023-01-01T17:22:08.194Z,5.90
2023-01-01T17:29:39.950Z,5.28
2023-01-01T17:37:11.702Z,5.72
2023-01-01T17:44:43.529Z,5.85
2023-01-01T17:52:15.267Z,6.72
2023-01-01T17:59:47.143Z,5.53
2023-01-01T18:07:19.082Z,5.93
2023-01-01T18:14:50.837Z,5.45
2023-01-01T18:22:23.010Z,6.00
2023-01-01T18:29:54.777Z,5.68
2023-01-01T18:37:26.502Z,5.60
2023-01-01T18:44:58.766Z,5.40
2023-01-01T18:52:31.701Z,6.45
2023-01-01T19:00:25.838Z,5.10
2023-01-01T19:08:04.732Z,5.78
2023-01-01T19:15:36.484Z,5.40
2023-01-01T19:23:27.122Z,5.75
2023-01-01T19:30:59.166Z,5.82
2023-01-01T19:38:30.975Z,5.65
2023-01-01T19:46:03.324Z,5.85
2023-01-01T19:53:35.201Z,5.57
2023-01-01T20:01:07.130Z,5.95
2023-01-01T20:08:38.998Z,6.25
2023-01-01T20:16:10.781Z,5.13
2023-01-01T20:23:42.624Z,5.50
2023-01-01T20:31:14.355Z,5.95
2023-01-01T20:38:46.132Z,5.82
2023-01-01T20:46:18.895Z,6.10
2023-01-01T20:53:50.643Z,5.47
2023-01-01T21:01:22.596Z,6.03
2023-01-01T21:08:54.425Z,6.03
2023-01-01T21:16:31.290Z,5.00
2023-01-01T21:24:23.538Z,5.57
2023-01-01T21:32:21.547Z,6.07
2023-01-01T21:39:53.410Z,4.95
2023-01-01T21:47:25.182Z,5.60
2023-01-01T21:54:57.784Z,6.30
2023-01-01T22:02:35.964Z,5.38
2023-01-01T22:10:21.393Z,5.75
2023-01-01T22:18:11.770Z,5.53
2023-01-01T22:25:44.484Z,5.35
2023-01-01T22:33:47.246Z,4.82
2023-01-01T22:41:19.064Z,4.38
2023-01-01T22:48:57.537Z,5.72
2023-01-01T22:56:29.877Z,6.07
2023-01-01T23:04:01.604Z,5.10
2023-01-01T23:11:33.401Z,6.00
2023-01-01T23:19:05.234Z,4.85
2023-01-01T23:26:38.115Z,5.47
2023-01-01T23:34:10.825Z,4.28
2023-01-01T23:41:42.571Z,4.35
2023-01-01T23:49:14.385Z,5.18
2023-01-01T23:56:46.297Z,4.13
